sensor_id;sensor_type;location;lat;lon;timestamp;temperature;humidity
23729;DHT22;12045;60.214;24.724;2022-10-22T00:00:42;7.80;99.90
23729;DHT22;12045;60.214;24.724;2022-10-22T00:03:10;7.70;99.90
23729;DHT22;12045;60.214;24.724;2022-10-22T00:05:38;7.70;99.90
23729;DHT22;12045;60.214;24.724;2022-10-22T00:08:06;7.60;99.90
23729;DHT22;12045;60.214;24.724;2022-10-22T00:10:33;7.60;99.90
23729;DHT22;12045;60.214;24.724;2022-10-22T00:13:01;7.60;99.90
23729;DHT22;12045;60.214;24.724;2022-10-22T00:15:28;7.70;99.90
23729;DHT22;12045;60.214;24.724;2022-10-22T00:17:56;7.70;99.90
23729;DHT22;12045;60.214;24.724;2022-10-22T00:20:23;7.60;99.90
23729;DHT22;12045;60.214;24.724;2022-10-22T00:22:51;7.60;99.90
23729;DHT22;12045;60.214;24.724;2022-10-22T00:25:23;7.70;99.90
23729;DHT22;12045;60.214;24.724;2022-10-22T00:27:51;7.70;99.90
23729;DHT22;12045;60.214;24.724;2022-10-22T00:30:18;7.80;99.90
23729;DHT22;12045;60.214;24.724;2022-10-22T00:32:46;7.80;99.90
23729;DHT22;12045;60.214;24.724;2022-10-22T00:35:14;7.60;99.90
23729;DHT22;12045;60.214;24.724;2022-10-22T00:37:41;7.80;99.90
23729;DHT22;12045;60.214;24.724;2022-10-22T00:40:10;7.10;99.90
23729;DHT22;12045;60.214;24.724;2022-10-22T00:42:37;7.50;99.90
23729;DHT22;12045;60.214;24.724;2022-10-22T00:47:40;7.40;99.90
23729;DHT22;12045;60.214;24.724;2022-10-22T00:50:18;7.60;99.90
23729;DHT22;12045;60.214;24.724;2022-10-22T00:52:48;7.70;99.90
23729;DHT22;12045;60.214;24.724;2022-10-22T00:55:17;7.90;99.90
23729;DHT22;12045;60.214;24.724;2022-10-22T00:57:45;7.90;99.90
23729;DHT22;12045;60.214;24.724;2022-10-22T01:00:14;8.00;99.90
23729;DHT22;12045;60.214;24.724;2022-10-22T01:02:42;8.20;99.90
23729;DHT22;12045;60.214;24.724;2022-10-22T01:05:10;7.90;99.90
23729;DHT22;12045;60.214;24.724;2022-10-22T01:07:51;7.50;99.90
23729;DHT22;12045;60.214;24.724;2022-10-22T01:10:37;7.30;99.90
23729;DHT22;12045;60.214;24.724;2022-10-22T01:13:48;7.20;99.90
23729;DHT22;12045;60.214;24.724;2022-10-22T01:19:21;7.40;99.90
23729;DHT22;12045;60.214;24.724;2022-10-22T01:22:08;7.60;99.90
23729;DHT22;12045;60.214;24.724;2022-10-22T01:30:27;7.70;99.90
23729;DHT22;12045;60.214;24.724;2022-10-22T01:32:58;7.70;99.90
23729;DHT22;12045;60.214;24.724;2022-10-22T01:35:33;7.70;99.90
23729;DHT22;12045;60.214;24.724;2022-10-22T01:38:04;7.80;99.90
23729;DHT22;12045;60.214;24.724;2022-10-22T01:40:34;7.80;99.90
23729;DHT22;12045;60.214;24.724;2022-10-22T01:43:05;7.90;99.90
23729;DHT22;12045;60.214;24.724;2022-10-22T01:58:51;8.10;99.90
23729;DHT22;12045;60.214;24.724;2022-10-22T02:07:21;8.20;99.90
23729;DHT22;12045;60.214;24.724;2022-10-22T02:09:51;8.00;99.90
23729;DHT22;12045;60.214;24.724;2022-10-22T02:12:19;7.80;99.90
23729;DHT22;12045;60.214;24.724;2022-10-22T02:14:48;7.70;99.90
23729;DHT22;12045;60.214;24.724;2022-10-22T02:17:19;7.50;99.90
23729;DHT22;12045;60.214;24.724;2022-10-22T02:19:51;7.60;99.90
23729;DHT22;12045;60.214;24.724;2022-10-22T02:22:19;7.70;99.90
23729;DHT22;12045;60.214;24.724;2022-10-22T02:24:48;7.80;99.90
23729;DHT22;12045;60.214;24.724;2022-10-22T02:27:40;7.90;99.90
23729;DHT22;12045;60.214;24.724;2022-10-22T02:30:20;8.50;99.90
23729;DHT22;12045;60.214;24.724;2022-10-22T02:35:27;8.10;99.90
23729;DHT22;12045;60.214;24.724;2022-10-22T02:37:56;8.10;99.90
23729;DHT22;12045;60.214;24.724;2022-10-22T02:40:25;8.20;99.90
23729;DHT22;12045;60.214;24.724;2022-10-22T02:42:52;8.20;99.90
23729;DHT22;12045;60.214;24.724;2022-10-22T02:45:20;8.30;99.90
23729;DHT22;12045;60.214;24.724;2022-10-22T02:47:48;8.30;99.90
23729;DHT22;12045;60.214;24.724;2022-10-22T02:50:16;8.30;99.90
23729;DHT22;12045;60.214;24.724;2022-10-22T02:52:45;8.30;99.90
23729;DHT22;12045;60.214;24.724;2022-10-22T02:55:12;8.30;99.90
23729;DHT22;12045;60.214;24.724;2022-10-22T02:57:40;8.40;99.90
23729;DHT22;12045;60.214;24.724;2022-10-22T03:00:09;8.40;99.90
23729;DHT22;12045;60.214;24.724;2022-10-22T03:02:37;8.40;99.90
23729;DHT22;12045;60.214;24.724;2022-10-22T03:05:05;8.40;99.90
23729;DHT22;12045;60.214;24.724;2022-10-22T03:07:32;8.10;99.90
23729;DHT22;12045;60.214;24.724;2022-10-22T03:10:02;8.50;99.90
23729;DHT22;12045;60.214;24.724;2022-10-22T03:12:29;8.50;99.90
23729;DHT22;12045;60.214;24.724;2022-10-22T03:14:57;8.50;99.90
23729;DHT22;12045;60.214;24.724;2022-10-22T03:17:24;8.60;99.90
23729;DHT22;12045;60.214;24.724;2022-10-22T03:19:52;8.60;99.90
23729;DHT22;12045;60.214;24.724;2022-10-22T03:22:24;8.60;99.90
23729;DHT22;12045;60.214;24.724;2022-10-22T03:24:54;8.70;99.90
23729;DHT22;12045;60.214;24.724;2022-10-22T03:27:27;8.60;99.90
23729;DHT22;12045;60.214;24.724;2022-10-22T03:29:55;8.60;99.90
23729;DHT22;12045;60.214;24.724;2022-10-22T03:32:24;8.60;99.90
23729;DHT22;12045;60.214;24.724;2022-10-22T03:34:51;8.60;99.90
23729;DHT22;12045;60.214;24.724;2022-10-22T03:37:19;8.60;99.90
23729;DHT22;12045;60.214;24.724;2022-10-22T03:39:47;8.60;99.90
23729;DHT22;12045;60.214;24.724;2022-10-22T03:42:14;8.70;99.90
23729;DHT22;12045;60.214;24.724;2022-10-22T03:44:42;8.00;99.90
23729;DHT22;12045;60.214;24.724;2022-10-22T03:47:10;9.10;99.90
23729;DHT22;12045;60.214;24.724;2022-10-22T03:49:38;8.70;99.90
23729;DHT22;12045;60.214;24.724;2022-10-22T03:52:14;8.60;99.90
23729;DHT22;12045;60.214;24.724;2022-10-22T03:54:43;8.60;99.90
23729;DHT22;12045;60.214;24.724;2022-10-22T03:57:11;8.60;99.90
23729;DHT22;12045;60.214;24.724;2022-10-22T03:59:41;8.60;99.90
23729;DHT22;12045;60.214;24.724;2022-10-22T04:02:09;8.90;99.90
23729;DHT22;12045;60.214;24.724;2022-10-22T04:04:37;8.60;99.90
23729;DHT22;12045;60.214;24.724;2022-10-22T04:07:06;8.60;99.90
23729;DHT22;12045;60.214;24.724;2022-10-22T04:09:34;8.60;99.90
23729;DHT22;12045;60.214;24.724;2022-10-22T04:12:02;8.70;99.90
23729;DHT22;12045;60.214;24.724;2022-10-22T04:14:31;8.70;99.90
23729;DHT22;12045;60.214;24.724;2022-10-22T04:16:59;8.80;99.90
23729;DHT22;12045;60.214;24.724;2022-10-22T04:19:26;8.80;99.90
23729;DHT22;12045;60.214;24.724;2022-10-22T04:21:56;8.70;99.90
23729;DHT22;12045;60.214;24.724;2022-10-22T04:24:23;8.50;99.90
23729;DHT22;12045;60.214;24.724;2022-10-22T04:26:53;9.10;99.90
23729;DHT22;12045;60.214;24.724;2022-10-22T04:29:22;8.20;99.90
23729;DHT22;12045;60.214;24.724;2022-10-22T04:31:50;8.80;99.90
23729;DHT22;12045;60.214;24.724;2022-10-22T04:34:17;8.80;99.90
23729;DHT22;12045;60.214;24.724;2022-10-22T04:36:45;8.80;99.90
23729;DHT22;12045;60.214;24.724;2022-10-22T04:39:13;8.80;99.90
23729;DHT22;12045;60.214;24.724;2022-10-22T04:41:40;8.80;99.90
23729;DHT22;12045;60.214;24.724;2022-10-22T04:44:08;8.70;99.90
23729;DHT22;12045;60.214;24.724;2022-10-22T04:46:42;8.80;99.90
23729;DHT22;12045;60.214;24.724;2022-10-22T04:49:10;8.80;99.90
23729;DHT22;12045;60.214;24.724;2022-10-22T04:51:37;8.80;99.90
23729;DHT22;12045;60.214;24.724;2022-10-22T04:54:05;8.80;99.90
23729;DHT22;12045;60.214;24.724;2022-10-22T04:56:32;8.80;99.90
23729;DHT22;12045;60.214;24.724;2022-10-22T04:59:03;8.80;99.90
23729;DHT22;12045;60.214;24.724;2022-10-22T05:01:35;8.80;99.90
23729;DHT22;12045;60.214;24.724;2022-10-22T05:04:15;8.80;99.90
23729;DHT22;12045;60.214;24.724;2022-10-22T05:06:43;8.80;99.90
23729;DHT22;12045;60.214;24.724;2022-10-22T05:09:13;8.90;99.90
23729;DHT22;12045;60.214;24.724;2022-10-22T05:11:42;8.90;99.90
23729;DHT22;12045;60.214;24.724;2022-10-22T05:14:13;9.00;99.90
23729;DHT22;12045;60.214;24.724;2022-10-22T05:16:41;9.00;99.90
23729;DHT22;12045;60.214;24.724;2022-10-22T05:19:15;9.00;99.90
23729;DHT22;12045;60.214;24.724;2022-10-22T05:21:43;9.00;99.90
23729;DHT22;12045;60.214;24.724;2022-10-22T05:24:12;8.90;99.90
23729;DHT22;12045;60.214;24.724;2022-10-22T05:26:40;8.80;99.90
23729;DHT22;12045;60.214;24.724;2022-10-22T05:29:07;8.80;99.90
23729;DHT22;12045;60.214;24.724;2022-10-22T05:31:35;8.70;99.90
23729;DHT22;12045;60.214;24.724;2022-10-22T05:34:02;8.70;99.90
23729;DHT22;12045;60.214;24.724;2022-10-22T05:36:30;8.70;99.90
23729;DHT22;12045;60.214;24.724;2022-10-22T05:38:58;8.70;99.90
23729;DHT22;12045;60.214;24.724;2022-10-22T05:41:26;8.70;99.90
23729;DHT22;12045;60.214;24.724;2022-10-22T05:43:56;8.70;99.90
23729;DHT22;12045;60.214;24.724;2022-10-22T05:46:25;8.70;99.90
23729;DHT22;12045;60.214;24.724;2022-10-22T05:49:00;8.70;99.90
23729;DHT22;12045;60.214;24.724;2022-10-22T05:51:29;8.70;99.90
23729;DHT22;12045;60.214;24.724;2022-10-22T05:54:02;8.70;99.90
23729;DHT22;12045;60.214;24.724;2022-10-22T05:56:31;8.70;99.90
23729;DHT22;12045;60.214;24.724;2022-10-22T05:58:59;9.30;99.90
23729;DHT22;12045;60.214;24.724;2022-10-22T06:01:29;8.60;99.90
23729;DHT22;12045;60.214;24.724;2022-10-22T06:03:59;8.60;99.90
23729;DHT22;12045;60.214;24.724;2022-10-22T06:06:42;8.60;99.90
23729;DHT22;12045;60.214;24.724;2022-10-22T06:09:30;8.80;99.90
23729;DHT22;12045;60.214;24.724;2022-10-22T06:11:59;8.70;99.90
23729;DHT22;12045;60.214;24.724;2022-10-22T06:14:28;8.60;99.90
23729;DHT22;12045;60.214;24.724;2022-10-22T06:16:58;8.60;99.90
23729;DHT22;12045;60.214;24.724;2022-10-22T06:19:26;8.70;99.90
23729;DHT22;12045;60.214;24.724;2022-10-22T06:21:54;8.70;99.90
23729;DHT22;12045;60.214;24.724;2022-10-22T06:24:21;8.70;99.90
23729;DHT22;12045;60.214;24.724;2022-10-22T06:26:49;8.70;99.90
23729;DHT22;12045;60.214;24.724;2022-10-22T06:29:17;8.70;99.90
23729;DHT22;12045;60.214;24.724;2022-10-22T06:31:45;8.80;99.90
23729;DHT22;12045;60.214;24.724;2022-10-22T06:34:13;8.80;99.90
23729;DHT22;12045;60.214;24.724;2022-10-22T06:36:43;8.80;99.90
23729;DHT22;12045;60.214;24.724;2022-10-22T06:39:15;8.80;99.90
23729;DHT22;12045;60.214;24.724;2022-10-22T06:41:43;8.90;99.90
23729;DHT22;12045;60.214;24.724;2022-10-22T06:44:14;8.80;99.90
23729;DHT22;12045;60.214;24.724;2022-10-22T06:46:42;8.80;99.90
23729;DHT22;12045;60.214;24.724;2022-10-22T06:49:13;8.80;99.90
23729;DHT22;12045;60.214;24.724;2022-10-22T06:51:41;8.80;99.90
23729;DHT22;12045;60.214;24.724;2022-10-22T06:54:09;8.80;99.90
23729;DHT22;12045;60.214;24.724;2022-10-22T06:56:36;8.80;99.90
23729;DHT22;12045;60.214;24.724;2022-10-22T06:59:04;8.80;99.90
23729;DHT22;12045;60.214;24.724;2022-10-22T07:01:33;8.80;99.90
23729;DHT22;12045;60.214;24.724;2022-10-22T07:04:02;8.90;99.90
23729;DHT22;12045;60.214;24.724;2022-10-22T07:06:31;8.90;99.90
23729;DHT22;12045;60.214;24.724;2022-10-22T07:08:58;8.90;99.90
23729;DHT22;12045;60.214;24.724;2022-10-22T07:11:32;8.80;99.90
23729;DHT22;12045;60.214;24.724;2022-10-22T07:14:03;8.80;99.90
23729;DHT22;12045;60.214;24.724;2022-10-22T07:16:31;8.90;99.90
23729;DHT22;12045;60.214;24.724;2022-10-22T07:19:03;8.90;99.90
23729;DHT22;12045;60.214;24.724;2022-10-22T07:21:31;8.90;99.90
23729;DHT22;12045;60.214;24.724;2022-10-22T07:23:58;8.60;99.90
23729;DHT22;12045;60.214;24.724;2022-10-22T07:26:26;8.90;99.90
23729;DHT22;12045;60.214;24.724;2022-10-22T07:28:58;9.00;99.90
23729;DHT22;12045;60.214;24.724;2022-10-22T07:31:26;8.90;99.90
23729;DHT22;12045;60.214;24.724;2022-10-22T07:33:54;9.00;99.90
23729;DHT22;12045;60.214;24.724;2022-10-22T07:36:21;9.00;99.90
23729;DHT22;12045;60.214;24.724;2022-10-22T07:38:54;9.00;99.90
23729;DHT22;12045;60.214;24.724;2022-10-22T07:41:23;9.10;99.90
23729;DHT22;12045;60.214;24.724;2022-10-22T07:43:51;9.00;99.90
23729;DHT22;12045;60.214;24.724;2022-10-22T07:46:19;9.00;99.90
23729;DHT22;12045;60.214;24.724;2022-10-22T07:48:46;9.00;99.90
23729;DHT22;12045;60.214;24.724;2022-10-22T07:51:14;9.10;99.90
23729;DHT22;12045;60.214;24.724;2022-10-22T07:53:42;9.10;99.90
23729;DHT22;12045;60.214;24.724;2022-10-22T07:56:09;9.10;99.90
23729;DHT22;12045;60.214;24.724;2022-10-22T07:58:37;9.10;99.90
23729;DHT22;12045;60.214;24.724;2022-10-22T08:01:04;9.00;99.90
23729;DHT22;12045;60.214;24.724;2022-10-22T08:03:32;8.90;99.90
23729;DHT22;12045;60.214;24.724;2022-10-22T08:06:00;8.90;99.90
23729;DHT22;12045;60.214;24.724;2022-10-22T08:08:28;8.90;99.90
23729;DHT22;12045;60.214;24.724;2022-10-22T08:10:58;8.80;99.90
23729;DHT22;12045;60.214;24.724;2022-10-22T08:13:27;8.80;99.90
23729;DHT22;12045;60.214;24.724;2022-10-22T08:16:00;8.80;99.90
23729;DHT22;12045;60.214;24.724;2022-10-22T08:18:28;8.80;99.90
23729;DHT22;12045;60.214;24.724;2022-10-22T08:20:55;8.80;99.90
23729;DHT22;12045;60.214;24.724;2022-10-22T08:23:23;8.90;99.90
23729;DHT22;12045;60.214;24.724;2022-10-22T08:25:55;9.00;99.90
23729;DHT22;12045;60.214;24.724;2022-10-22T08:28:23;8.90;99.90
23729;DHT22;12045;60.214;24.724;2022-10-22T08:30:51;8.90;99.90
23729;DHT22;12045;60.214;24.724;2022-10-22T08:33:18;8.90;99.90
23729;DHT22;12045;60.214;24.724;2022-10-22T08:35:52;8.90;99.90
23729;DHT22;12045;60.214;24.724;2022-10-22T08:38:20;8.80;99.90
23729;DHT22;12045;60.214;24.724;2022-10-22T08:41:00;8.80;99.90
23729;DHT22;12045;60.214;24.724;2022-10-22T08:48:49;8.90;99.90
23729;DHT22;12045;60.214;24.724;2022-10-22T08:51:22;9.00;99.90
23729;DHT22;12045;60.214;24.724;2022-10-22T08:56:45;9.00;99.90
23729;DHT22;12045;60.214;24.724;2022-10-22T08:59:19;9.10;99.90
23729;DHT22;12045;60.214;24.724;2022-10-22T09:01:52;9.20;99.90
23729;DHT22;12045;60.214;24.724;2022-10-22T09:04:39;9.20;99.90
23729;DHT22;12045;60.214;24.724;2022-10-22T09:07:09;9.20;99.90
23729;DHT22;12045;60.214;24.724;2022-10-22T09:09:42;8.90;99.90
23729;DHT22;12045;60.214;24.724;2022-10-22T09:12:15;9.20;99.90
23729;DHT22;12045;60.214;24.724;2022-10-22T09:14:46;9.10;99.90
23729;DHT22;12045;60.214;24.724;2022-10-22T09:17:25;9.10;99.90
23729;DHT22;12045;60.214;24.724;2022-10-22T09:25:30;9.70;99.90
23729;DHT22;12045;60.214;24.724;2022-10-22T09:27:58;9.20;99.90
23729;DHT22;12045;60.214;24.724;2022-10-22T09:30:29;9.30;99.90
23729;DHT22;12045;60.214;24.724;2022-10-22T09:35:33;9.30;99.90
23729;DHT22;12045;60.214;24.724;2022-10-22T09:38:07;9.30;99.90
23729;DHT22;12045;60.214;24.724;2022-10-22T09:40:46;9.40;99.90
23729;DHT22;12045;60.214;24.724;2022-10-22T09:43:14;9.30;99.90
23729;DHT22;12045;60.214;24.724;2022-10-22T09:45:43;9.40;99.90
23729;DHT22;12045;60.214;24.724;2022-10-22T09:48:23;9.40;99.90
23729;DHT22;12045;60.214;24.724;2022-10-22T09:53:44;9.60;99.90
23729;DHT22;12045;60.214;24.724;2022-10-22T09:58:51;9.80;99.90
23729;DHT22;12045;60.214;24.724;2022-10-22T10:01:28;9.80;99.90
23729;DHT22;12045;60.214;24.724;2022-10-22T10:04:08;9.80;99.90
23729;DHT22;12045;60.214;24.724;2022-10-22T10:06:39;9.80;99.90
23729;DHT22;12045;60.214;24.724;2022-10-22T10:09:15;9.80;99.90
23729;DHT22;12045;60.214;24.724;2022-10-22T10:17:27;10.00;99.90
23729;DHT22;12045;60.214;24.724;2022-10-22T10:20:26;10.00;99.90
23729;DHT22;12045;60.214;24.724;2022-10-22T10:23:40;10.10;99.90
23729;DHT22;12045;60.214;24.724;2022-10-22T10:26:31;10.10;99.90
23729;DHT22;12045;60.214;24.724;2022-10-22T10:31:48;10.00;99.90
23729;DHT22;12045;60.214;24.724;2022-10-22T10:34:26;10.00;99.90
23729;DHT22;12045;60.214;24.724;2022-10-22T10:37:17;10.10;99.90
23729;DHT22;12045;60.214;24.724;2022-10-22T10:43:09;10.00;99.90
23729;DHT22;12045;60.214;24.724;2022-10-22T10:46:01;10.00;99.90
23729;DHT22;12045;60.214;24.724;2022-10-22T10:51:28;9.90;99.90
23729;DHT22;12045;60.214;24.724;2022-10-22T10:54:11;9.90;99.90
23729;DHT22;12045;60.214;24.724;2022-10-22T10:56:44;9.90;99.90
23729;DHT22;12045;60.214;24.724;2022-10-22T10:59:37;9.90;99.90
23729;DHT22;12045;60.214;24.724;2022-10-22T11:05:02;9.90;99.90
23729;DHT22;12045;60.214;24.724;2022-10-22T11:07:48;9.90;99.90
23729;DHT22;12045;60.214;24.724;2022-10-22T11:13:03;9.90;99.90
23729;DHT22;12045;60.214;24.724;2022-10-22T11:15:36;9.90;99.90
23729;DHT22;12045;60.214;24.724;2022-10-22T11:18:13;9.90;99.90
23729;DHT22;12045;60.214;24.724;2022-10-22T11:20:54;9.80;99.90
23729;DHT22;12045;60.214;24.724;2022-10-22T11:26:25;9.70;99.90
23729;DHT22;12045;60.214;24.724;2022-10-22T11:28:53;9.60;99.90
23729;DHT22;12045;60.214;24.724;2022-10-22T11:31:25;9.60;99.90
23729;DHT22;12045;60.214;24.724;2022-10-22T11:33:59;9.60;99.90
23729;DHT22;12045;60.214;24.724;2022-10-22T11:36:48;9.60;99.90
23729;DHT22;12045;60.214;24.724;2022-10-22T11:39:37;9.60;99.90
23729;DHT22;12045;60.214;24.724;2022-10-22T11:42:09;9.70;99.90
23729;DHT22;12045;60.214;24.724;2022-10-22T11:44:49;9.80;99.90
23729;DHT22;12045;60.214;24.724;2022-10-22T11:50:21;9.60;99.90
23729;DHT22;12045;60.214;24.724;2022-10-22T11:58:42;9.40;99.90
23729;DHT22;12045;60.214;24.724;2022-10-22T12:03:43;9.70;99.90
23729;DHT22;12045;60.214;24.724;2022-10-22T12:06:21;10.20;99.90
23729;DHT22;12045;60.214;24.724;2022-10-22T12:11:39;9.30;99.90
23729;DHT22;12045;60.214;24.724;2022-10-22T12:16:51;9.30;99.90
23729;DHT22;12045;60.214;24.724;2022-10-22T12:19:38;9.30;99.90
23729;DHT22;12045;60.214;24.724;2022-10-22T12:22:12;9.20;99.90
23729;DHT22;12045;60.214;24.724;2022-10-22T12:24:45;9.30;99.90
23729;DHT22;12045;60.214;24.724;2022-10-22T12:27:27;9.30;99.90
23729;DHT22;12045;60.214;24.724;2022-10-22T12:29:58;9.40;99.90
23729;DHT22;12045;60.214;24.724;2022-10-22T12:32:37;9.30;99.90
23729;DHT22;12045;60.214;24.724;2022-10-22T12:35:14;9.30;99.90
23729;DHT22;12045;60.214;24.724;2022-10-22T12:37:43;9.30;99.90
23729;DHT22;12045;60.214;24.724;2022-10-22T12:40:25;9.20;99.90
23729;DHT22;12045;60.214;24.724;2022-10-22T12:42:59;9.10;99.90
23729;DHT22;12045;60.214;24.724;2022-10-22T12:45:30;9.10;99.90
23729;DHT22;12045;60.214;24.724;2022-10-22T12:48:01;9.20;99.90
23729;DHT22;12045;60.214;24.724;2022-10-22T12:50:39;9.20;99.90
23729;DHT22;12045;60.214;24.724;2022-10-22T12:53:31;9.10;99.90
23729;DHT22;12045;60.214;24.724;2022-10-22T12:56:02;9.10;99.90
23729;DHT22;12045;60.214;24.724;2022-10-22T12:59:02;9.10;99.90
23729;DHT22;12045;60.214;24.724;2022-10-22T13:01:33;9.10;99.90
23729;DHT22;12045;60.214;24.724;2022-10-22T13:04:21;9.10;99.90
23729;DHT22;12045;60.214;24.724;2022-10-22T13:06:51;9.00;99.90
23729;DHT22;12045;60.214;24.724;2022-10-22T13:12:08;9.10;99.90
23729;DHT22;12045;60.214;24.724;2022-10-22T13:14:44;9.00;99.90
23729;DHT22;12045;60.214;24.724;2022-10-22T13:22:35;9.20;99.90
23729;DHT22;12045;60.214;24.724;2022-10-22T13:27:47;9.20;99.90
23729;DHT22;12045;60.214;24.724;2022-10-22T13:30:21;9.20;99.90
23729;DHT22;12045;60.214;24.724;2022-10-22T13:33:01;9.60;99.90
23729;DHT22;12045;60.214;24.724;2022-10-22T13:35:33;9.20;99.90
23729;DHT22;12045;60.214;24.724;2022-10-22T13:38:04;9.20;99.90
23729;DHT22;12045;60.214;24.724;2022-10-22T13:40:32;9.20;99.90
23729;DHT22;12045;60.214;24.724;2022-10-22T13:43:01;9.20;99.90
23729;DHT22;12045;60.214;24.724;2022-10-22T13:45:29;9.10;99.90
23729;DHT22;12045;60.214;24.724;2022-10-22T13:47:56;9.10;99.90
23729;DHT22;12045;60.214;24.724;2022-10-22T13:50:24;9.40;99.90
23729;DHT22;12045;60.214;24.724;2022-10-22T13:52:53;9.20;99.90
23729;DHT22;12045;60.214;24.724;2022-10-22T13:55:23;9.30;99.90
23729;DHT22;12045;60.214;24.724;2022-10-22T13:58:13;9.20;99.90
23729;DHT22;12045;60.214;24.724;2022-10-22T14:00:42;9.10;99.90
23729;DHT22;12045;60.214;24.724;2022-10-22T14:03:15;9.10;99.90
23729;DHT22;12045;60.214;24.724;2022-10-22T14:05:45;9.10;99.90
23729;DHT22;12045;60.214;24.724;2022-10-22T14:08:18;9.30;99.90
23729;DHT22;12045;60.214;24.724;2022-10-22T14:10:46;9.10;99.90
23729;DHT22;12045;60.214;24.724;2022-10-22T14:13:15;9.10;99.90
23729;DHT22;12045;60.214;24.724;2022-10-22T14:15:45;9.10;99.90
23729;DHT22;12045;60.214;24.724;2022-10-22T14:18:23;9.10;99.90
23729;DHT22;12045;60.214;24.724;2022-10-22T14:20:59;9.10;99.90
23729;DHT22;12045;60.214;24.724;2022-10-22T14:23:29;9.10;99.90
23729;DHT22;12045;60.214;24.724;2022-10-22T14:25:57;9.10;99.90
23729;DHT22;12045;60.214;24.724;2022-10-22T14:28:26;9.10;99.90
23729;DHT22;12045;60.214;24.724;2022-10-22T14:30:54;9.10;99.90
23729;DHT22;12045;60.214;24.724;2022-10-22T14:33:24;9.00;99.90
23729;DHT22;12045;60.214;24.724;2022-10-22T14:36:00;9.00;99.90
23729;DHT22;12045;60.214;24.724;2022-10-22T14:38:28;9.00;99.90
23729;DHT22;12045;60.214;24.724;2022-10-22T14:40:56;9.00;99.90
23729;DHT22;12045;60.214;24.724;2022-10-22T14:43:27;8.90;99.90
23729;DHT22;12045;60.214;24.724;2022-10-22T14:45:56;8.90;99.90
23729;DHT22;12045;60.214;24.724;2022-10-22T14:48:23;9.00;99.90
23729;DHT22;12045;60.214;24.724;2022-10-22T14:50:51;9.00;99.90
23729;DHT22;12045;60.214;24.724;2022-10-22T14:53:18;9.00;99.90
23729;DHT22;12045;60.214;24.724;2022-10-22T14:55:46;9.10;99.90
23729;DHT22;12045;60.214;24.724;2022-10-22T14:58:15;9.00;99.90
23729;DHT22;12045;60.214;24.724;2022-10-22T15:00:42;8.80;99.90
23729;DHT22;12045;60.214;24.724;2022-10-22T15:03:10;9.00;99.90
23729;DHT22;12045;60.214;24.724;2022-10-22T15:05:42;8.90;99.90
23729;DHT22;12045;60.214;24.724;2022-10-22T15:08:12;8.80;99.90
23729;DHT22;12045;60.214;24.724;2022-10-22T15:10:40;9.30;99.90
23729;DHT22;12045;60.214;24.724;2022-10-22T15:13:08;8.70;99.90
23729;DHT22;12045;60.214;24.724;2022-10-22T15:15:39;8.60;99.90
23729;DHT22;12045;60.214;24.724;2022-10-22T15:18:06;8.50;99.90
23729;DHT22;12045;60.214;24.724;2022-10-22T15:20:34;8.50;99.90
23729;DHT22;12045;60.214;24.724;2022-10-22T15:23:01;8.40;99.90
23729;DHT22;12045;60.214;24.724;2022-10-22T15:25:29;8.30;99.90
23729;DHT22;12045;60.214;24.724;2022-10-22T15:27:56;8.30;99.90
23729;DHT22;12045;60.214;24.724;2022-10-22T15:30:33;8.70;99.90
23729;DHT22;12045;60.214;24.724;2022-10-22T15:33:01;8.30;99.90
23729;DHT22;12045;60.214;24.724;2022-10-22T15:35:28;8.20;99.90
23729;DHT22;12045;60.214;24.724;2022-10-22T15:37:56;8.20;99.90
23729;DHT22;12045;60.214;24.724;2022-10-22T15:40:23;8.20;99.90
23729;DHT22;12045;60.214;24.724;2022-10-22T15:42:51;8.10;99.90
23729;DHT22;12045;60.214;24.724;2022-10-22T15:45:18;8.10;99.90
23729;DHT22;12045;60.214;24.724;2022-10-22T15:47:48;8.00;99.90
23729;DHT22;12045;60.214;24.724;2022-10-22T15:50:16;8.00;99.90
23729;DHT22;12045;60.214;24.724;2022-10-22T15:52:43;8.00;99.90
23729;DHT22;12045;60.214;24.724;2022-10-22T15:55:11;7.90;99.90
23729;DHT22;12045;60.214;24.724;2022-10-22T15:57:38;7.90;99.90
23729;DHT22;12045;60.214;24.724;2022-10-22T16:00:07;7.80;99.90
23729;DHT22;12045;60.214;24.724;2022-10-22T16:02:35;7.70;99.90
23729;DHT22;12045;60.214;24.724;2022-10-22T16:05:03;7.70;99.90
23729;DHT22;12045;60.214;24.724;2022-10-22T16:07:31;7.70;99.90
23729;DHT22;12045;60.214;24.724;2022-10-22T16:09:58;7.60;99.90
23729;DHT22;12045;60.214;24.724;2022-10-22T16:12:28;7.60;99.90
23729;DHT22;12045;60.214;24.724;2022-10-22T16:14:55;7.70;99.90
23729;DHT22;12045;60.214;24.724;2022-10-22T16:17:23;7.70;99.90
23729;DHT22;12045;60.214;24.724;2022-10-22T16:19:50;7.70;99.90
23729;DHT22;12045;60.214;24.724;2022-10-22T16:22:18;7.10;99.90
23729;DHT22;12045;60.214;24.724;2022-10-22T16:24:45;7.70;99.90
23729;DHT22;12045;60.214;24.724;2022-10-22T16:27:13;7.70;99.90
23729;DHT22;12045;60.214;24.724;2022-10-22T16:29:41;7.50;99.90
23729;DHT22;12045;60.214;24.724;2022-10-22T16:32:08;7.70;99.90
23729;DHT22;12045;60.214;24.724;2022-10-22T16:34:36;7.60;99.90
23729;DHT22;12045;60.214;24.724;2022-10-22T16:37:03;7.60;99.90
23729;DHT22;12045;60.214;24.724;2022-10-22T16:39:37;7.60;99.90
23729;DHT22;12045;60.214;24.724;2022-10-22T16:42:04;7.60;99.90
23729;DHT22;12045;60.214;24.724;2022-10-22T16:44:32;7.50;99.90
23729;DHT22;12045;60.214;24.724;2022-10-22T16:46:59;7.50;99.90
23729;DHT22;12045;60.214;24.724;2022-10-22T16:49:27;7.40;99.90
23729;DHT22;12045;60.214;24.724;2022-10-22T16:51:54;7.40;99.90
23729;DHT22;12045;60.214;24.724;2022-10-22T16:54:22;6.80;99.90
23729;DHT22;12045;60.214;24.724;2022-10-22T16:56:49;7.40;99.90
23729;DHT22;12045;60.214;24.724;2022-10-22T16:59:17;7.40;99.90
23729;DHT22;12045;60.214;24.724;2022-10-22T17:01:45;7.40;99.90
23729;DHT22;12045;60.214;24.724;2022-10-22T17:04:12;7.40;99.90
23729;DHT22;12045;60.214;24.724;2022-10-22T17:06:40;7.40;99.90
23729;DHT22;12045;60.214;24.724;2022-10-22T17:09:07;7.40;99.90
23729;DHT22;12045;60.214;24.724;2022-10-22T17:11:37;7.40;99.90
23729;DHT22;12045;60.214;24.724;2022-10-22T17:14:10;7.40;99.90
23729;DHT22;12045;60.214;24.724;2022-10-22T17:16:37;7.40;99.90
23729;DHT22;12045;60.214;24.724;2022-10-22T17:19:11;7.60;99.90
23729;DHT22;12045;60.214;24.724;2022-10-22T17:21:41;7.50;99.90
23729;DHT22;12045;60.214;24.724;2022-10-22T17:24:09;7.50;99.90
23729;DHT22;12045;60.214;24.724;2022-10-22T17:26:36;8.20;99.90
23729;DHT22;12045;60.214;24.724;2022-10-22T17:29:04;7.60;99.90
23729;DHT22;12045;60.214;24.724;2022-10-22T17:31:34;7.60;99.90
23729;DHT22;12045;60.214;24.724;2022-10-22T17:34:05;7.60;99.90
23729;DHT22;12045;60.214;24.724;2022-10-22T17:36:34;7.70;99.90
23729;DHT22;12045;60.214;24.724;2022-10-22T17:39:05;7.70;99.90